Archival Weather

Yacuiba

Yacuiba, Bolivia (SLYA)

Report from: Thursday, December 7, 2023 3:00 PM -04
Current time: Tuesday, April 23, 2024 4:53 AM -04

Current weather – Weather history – Daily summaries
Weather forecast

Temperature29.0°C (84.2°F)
Heat index31.6°C (88.8°F)
Dew point21.0°C (69.8°F)
Winds 5 kts (2.6 m/s, 5.8 mph) South (190°)
Visibility6.2 mi. (10 km)
Clouds Scattered clouds 2,000 ft. (610 m)
Scattered clouds 7,000 ft. (2,134 m)
Altimeter29.88 in.Hg (1012 mB)
Relative humidity62 %
Density altitude1,986 ft. (605 m)
Flight conditions Visual Meteorological Conditions
Raw dataSLYA 071900Z 19005KT 9999 SCT020 SCT070 29/21 Q1012
An error has occurred. This application may no longer respond until reloaded. Reload 🗙